Time;durP1;ratioP1;P1;durP2;ratioP2;P2;SDS_P1;SDS_P2;PMS_P1;PMS_P2;Temp;Humidity;BMP_temperature;BMP_pressure;BME280_temperature;BME280_humidity;BME280_pressure;Samples;Min_cycle;Max_cycle;Signal;HPM_P1;HPM_P2
2022/06/01 00:01:24;;;;;;;1.73;1.55;;;16.10;99.90;;;;;;5068506;28;20532;-82
2022/06/01 00:03:51;;;;;;;4.10;1.70;;;16.10;99.90;;;;;;5068876;28;20052;-81
2022/06/01 00:06:18;;;;;;;4.38;1.60;;;16.00;99.90;;;;;;5070242;28;20048;-83
2022/06/01 00:08:44;;;;;;;3.50;1.75;;;16.00;99.90;;;;;;5058554;28;20049;-81
2022/06/01 00:11:11;;;;;;;4.60;1.85;;;16.00;99.90;;;;;;5067645;28;20049;-81
2022/06/01 00:13:38;;;;;;;2.88;1.33;;;16.00;99.90;;;;;;5066308;28;20088;-83
2022/06/01 00:16:07;;;;;;;4.25;1.73;;;15.90;99.90;;;;;;5051025;28;20051;-82
2022/06/01 00:18:35;;;;;;;2.55;1.65;;;15.90;99.90;;;;;;5068320;28;20056;-82
2022/06/01 00:21:03;;;;;;;2.58;1.60;;;15.80;99.90;;;;;;5064800;28;20045;-82
2022/06/01 00:23:30;;;;;;;2.85;1.80;;;15.70;99.90;;;;;;5066208;28;20056;-82
2022/06/01 00:25:58;;;;;;;4.32;1.80;;;15.70;99.90;;;;;;5066945;28;20052;-82
2022/06/01 00:28:25;;;;;;;4.32;2.13;;;15.60;99.90;;;;;;5068007;28;20056;-82
2022/06/01 00:30:52;;;;;;;3.33;1.75;;;15.70;99.90;;;;;;5068439;28;20136;-82
2022/06/01 00:33:19;;;;;;;3.83;1.63;;;15.60;99.90;;;;;;5066631;28;20153;-82
2022/06/01 00:35:46;;;;;;;3.13;1.60;;;15.60;99.90;;;;;;5068310;28;20055;-82
2022/06/01 00:38:14;;;;;;;3.45;1.77;;;15.60;99.90;;;;;;5065254;28;20045;-81
2022/06/01 00:40:40;;;;;;;2.03;1.63;;;15.60;99.90;;;;;;5069417;28;20508;-82
2022/06/01 00:43:24;;;;;;;1.85;1.60;;;15.50;99.90;;;;;;5069109;28;20044;-81
2022/06/01 00:45:51;;;;;;;3.88;1.90;;;15.50;99.90;;;;;;5065353;28;20510;-82
2022/06/01 00:48:24;;;;;;;2.40;1.70;;;15.50;99.90;;;;;;5047629;28;20067;-82
2022/06/01 00:50:50;;;;;;;3.28;1.75;;;15.40;99.90;;;;;;5066915;28;20417;-81
2022/06/01 00:53:22;;;;;;;5.03;1.70;;;15.40;99.90;;;;;;5065974;28;20049;-81
2022/06/01 00:55:59;;;;;;;5.22;1.40;;;15.40;99.90;;;;;;5046719;28;20044;-82
2022/06/01 00:58:30;;;;;;;2.92;1.83;;;15.40;99.90;;;;;;5046659;28;20068;-82
2022/06/01 01:00:58;;;;;;;3.72;1.73;;;15.30;99.90;;;;;;5069167;28;20072;-82
2022/06/01 01:03:29;;;;;;;2.28;1.63;;;15.30;99.90;;;;;;5066069;28;20044;-81
2022/06/01 01:06:21;;;;;;;2.10;1.42;;;15.20;99.90;;;;;;5064098;28;20061;-82
2022/06/01 01:08:49;;;;;;;4.38;1.83;;;15.20;99.90;;;;;;5068315;28;20060;-82
2022/06/01 01:11:21;;;;;;;3.33;1.60;;;15.20;99.90;;;;;;5065660;28;20059;-83
2022/06/01 01:13:50;;;;;;;4.15;1.70;;;15.20;99.90;;;;;;5036519;28;20049;-82
2022/06/01 01:16:18;;;;;;;7.65;2.38;;;15.20;99.90;;;;;;5066218;28;20051;-82
2022/06/01 01:18:46;;;;;;;6.05;1.88;;;15.20;99.90;;;;;;5056248;28;20628;-82
2022/06/01 01:21:44;;;;;;;2.60;1.67;;;15.10;99.90;;;;;;5047132;28;20048;-82
2022/06/01 01:24:43;;;;;;;3.33;2.15;;;15.10;99.90;;;;;;5045905;28;20132;-82
2022/06/01 01:27:09;;;;;;;3.53;1.90;;;15.00;99.90;;;;;;5025724;28;20049;-82
2022/06/01 01:29:40;;;;;;;2.85;1.98;;;15.00;99.90;;;;;;5063887;28;20518;-84
2022/06/01 01:32:08;;;;;;;;;;;15.00;99.90;;;;;;5065656;28;20048;-81
2022/06/01 01:34:36;;;;;;;3.85;2.40;;;14.90;99.90;;;;;;5065348;28;20394;-83
2022/06/01 01:37:08;;;;;;;3.08;1.90;;;14.90;99.90;;;;;;5064351;28;20413;-81
2022/06/01 01:39:37;;;;;;;2.35;1.85;;;14.90;99.90;;;;;;5062833;28;20045;-81
2022/06/01 01:42:04;;;;;;;4.13;1.83;;;14.90;99.90;;;;;;5066071;28;20114;-81
2022/06/01 01:44:37;;;;;;;3.42;1.83;;;14.80;99.90;;;;;;5053985;28;20055;-82
2022/06/01 01:47:04;;;;;;;6.50;2.55;;;14.80;99.90;;;;;;5063722;28;20075;-81
2022/06/01 01:49:33;;;;;;;4.28;2.47;;;14.70;99.90;;;;;;5065486;28;20056;-81
2022/06/01 01:52:04;;;;;;;3.78;1.63;;;14.70;99.90;;;;;;5066393;28;20057;-81
2022/06/01 01:54:42;;;;;;;3.05;1.90;;;14.70;99.90;;;;;;5050329;28;20401;-81
2022/06/01 01:57:36;;;;;;;2.58;1.75;;;14.60;99.90;;;;;;5063654;28;20055;-82
2022/06/01 02:00:22;;;;;;;3.42;2.05;;;14.60;99.90;;;;;;5050653;28;20143;-81
2022/06/01 02:02:58;;;;;;;3.58;1.80;;;14.60;99.90;;;;;;5063873;28;20124;-81
2022/06/01 02:08:46;;;;;;;5.20;2.05;;;14.60;99.90;;;;;;5064898;28;20409;-81
2022/06/01 02:14:50;;;;;;;3.25;2.15;;;14.50;99.90;;;;;;5065942;28;20102;-82
2022/06/01 02:17:25;;;;;;;3.50;2.63;;;14.50;99.90;;;;;;5046881;28;20051;-82
2022/06/01 02:20:00;;;;;;;3.53;1.83;;;14.50;99.90;;;;;;5053178;28;20054;-81
2022/06/01 02:22:27;;;;;;;2.22;1.85;;;14.50;99.90;;;;;;5053398;28;20045;-81
2022/06/01 02:24:54;;;;;;;4.30;1.95;;;14.50;99.90;;;;;;5040019;28;20141;-82
2022/06/01 02:27:21;;;;;;;3.80;2.00;;;14.40;99.90;;;;;;5053133;28;20048;-81
2022/06/01 02:29:54;;;;;;;2.75;1.95;;;14.40;99.90;;;;;;5060837;28;20053;-82
2022/06/01 02:32:22;;;;;;;2.30;1.88;;;14.40;99.90;;;;;;5057044;28;20135;-81
2022/06/01 02:34:50;;;;;;;2.70;1.80;;;14.40;99.90;;;;;;5070243;28;20054;-81
2022/06/01 02:37:17;;;;;;;4.00;1.92;;;14.30;99.90;;;;;;5060245;28;20136;-82
2022/06/01 02:39:52;;;;;;;3.53;2.40;;;14.30;99.90;;;;;;5062569;28;20114;-80
2022/06/01 02:42:28;;;;;;;2.28;2.05;;;14.30;99.90;;;;;;5069120;28;20079;-82
2022/06/01 02:44:57;;;;;;;6.30;2.10;;;14.30;99.90;;;;;;5075504;28;20136;-82
2022/06/01 02:47:26;;;;;;;2.80;2.13;;;14.30;99.90;;;;;;5075075;28;20314;-82
2022/06/01 02:49:53;;;;;;;2.83;1.60;;;14.20;99.90;;;;;;5051450;28;20052;-83
2022/06/01 02:52:21;;;;;;;4.50;1.90;;;14.20;99.90;;;;;;5072131;28;20048;-82
2022/06/01 02:54:49;;;;;;;3.08;1.50;;;14.20;99.90;;;;;;5059063;28;20082;-81
2022/06/01 02:57:15;;;;;;;3.33;2.03;;;14.20;99.90;;;;;;5066202;28;20044;-82
2022/06/01 02:59:43;;;;;;;4.50;1.92;;;14.20;99.90;;;;;;5066343;28;20581;-81
2022/06/01 03:02:09;;;;;;;6.10;2.20;;;14.10;99.90;;;;;;5062148;28;20076;-82
2022/06/01 03:04:38;;;;;;;3.72;1.98;;;14.10;99.90;;;;;;5061573;28;20057;-82
2022/06/01 03:07:05;;;;;;;5.15;2.08;;;14.10;99.90;;;;;;5066350;28;20045;-80
2022/06/01 03:09:34;;;;;;;2.83;2.00;;;14.10;99.90;;;;;;5072443;28;20056;-82
2022/06/01 03:12:01;;;;;;;9.55;2.10;;;14.00;99.90;;;;;;5068803;28;20111;-82
2022/06/01 03:14:28;;;;;;;2.85;1.77;;;14.10;99.90;;;;;;5067135;28;20044;-82
2022/06/01 03:16:58;;;;;;;2.90;1.73;;;14.10;99.90;;;;;;5058957;28;20128;-82
2022/06/01 03:19:25;;;;;;;6.57;2.23;;;14.10;99.90;;;;;;5045993;28;20059;-82
2022/06/01 03:21:53;;;;;;;3.65;1.90;;;14.10;99.90;;;;;;5046551;28;20119;-82
2022/06/01 03:24:20;;;;;;;4.82;2.28;;;14.20;99.90;;;;;;5046694;28;20084;-81
2022/06/01 03:26:47;;;;;;;4.13;2.20;;;14.20;99.90;;;;;;5056209;28;20052;-82
2022/06/01 03:29:20;;;;;;;4.78;2.10;;;14.20;99.90;;;;;;5064444;28;20110;-81
2022/06/01 03:31:46;;;;;;;2.88;2.10;;;14.30;99.90;;;;;;5056126;28;20552;-81
2022/06/01 03:34:13;;;;;;;6.22;2.15;;;14.30;99.90;;;;;;5055853;28;20052;-82
2022/06/01 03:36:41;;;;;;;3.15;2.08;;;14.40;99.90;;;;;;5056668;28;20103;-81
2022/06/01 03:39:08;;;;;;;4.07;2.50;;;14.40;99.90;;;;;;5056081;28;20067;-82
2022/06/01 03:41:34;;;;;;;3.88;2.10;;;14.40;99.90;;;;;;5044294;28;20075;-81
2022/06/01 03:46:46;;;;;;;13.68;2.38;;;14.40;99.90;;;;;;5065743;28;20095;-81
2022/06/01 03:49:13;;;;;;;6.03;2.20;;;14.40;99.90;;;;;;5066572;28;20131;-81
2022/06/01 03:51:40;;;;;;;4.18;1.85;;;14.40;99.90;;;;;;5049416;28;20048;-81
2022/06/01 03:54:06;;;;;;;4.88;1.88;;;14.50;99.90;;;;;;5068087;28;20052;-81
2022/06/01 03:56:33;;;;;;;2.10;1.85;;;14.40;99.90;;;;;;5068187;28;20414;-82
2022/06/01 03:59:00;;;;;;;5.20;2.53;;;14.40;99.90;;;;;;5067728;28;20584;-81
2022/06/01 04:01:27;;;;;;;3.22;1.98;;;14.40;99.90;;;;;;5065410;28;20055;-82
2022/06/01 04:03:53;;;;;;;5.15;1.95;;;14.50;99.90;;;;;;5038435;28;20057;-81
2022/06/01 04:06:20;;;;;;;4.47;1.90;;;14.50;99.90;;;;;;5046414;28;20065;-82
2022/06/01 04:08:47;;;;;;;3.42;2.30;;;14.50;99.90;;;;;;5055978;28;20048;-83
2022/06/01 04:11:13;;;;;;;4.70;2.20;;;14.60;99.90;;;;;;5043693;28;20132;-82
2022/06/01 04:13:41;;;;;;;4.38;2.30;;;14.60;99.90;;;;;;5057327;28;20048;-82
2022/06/01 04:16:07;;;;;;;5.10;2.25;;;14.60;99.90;;;;;;5051144;28;20048;-82
2022/06/01 04:18:54;;;;;;;6.18;2.00;;;14.70;99.90;;;;;;5065858;28;20044;-82
2022/06/01 04:21:26;;;;;;;2.08;1.58;;;14.80;99.90;;;;;;5047814;28;20502;-82
2022/06/01 04:23:58;;;;;;;4.35;1.75;;;14.80;99.90;;;;;;5072510;28;20043;-82
2022/06/01 04:26:25;;;;;;;3.10;1.92;;;14.80;99.90;;;;;;5067345;28;20048;-82
2022/06/01 04:28:55;;;;;;;3.75;2.00;;;14.90;99.90;;;;;;5068134;28;20041;-82
2022/06/01 04:31:22;;;;;;;4.07;1.90;;;14.90;99.90;;;;;;5066920;28;20638;-81
2022/06/01 04:33:49;;;;;;;3.67;2.63;;;14.90;99.90;;;;;;5063771;28;20045;-82
2022/06/01 04:36:15;;;;;;;5.20;2.40;;;15.00;99.90;;;;;;5070794;28;20095;-82
2022/06/01 04:38:42;;;;;;;3.92;2.17;;;15.00;99.90;;;;;;5048808;28;20120;-83
2022/06/01 04:41:09;;;;;;;6.63;2.55;;;15.00;99.90;;;;;;5048484;28;20048;-82
2022/06/01 04:43:35;;;;;;;6.47;2.30;;;15.00;99.90;;;;;;5063249;28;20079;-82
2022/06/01 04:46:02;;;;;;;5.32;2.03;;;14.90;99.90;;;;;;5054732;28;20063;-82
2022/06/01 04:48:29;;;;;;;3.55;2.30;;;15.00;99.90;;;;;;5062597;28;20060;-82
2022/06/01 04:50:58;;;;;;;4.50;2.47;;;14.90;99.90;;;;;;5066654;28;20414;-82
2022/06/01 04:53:25;;;;;;;3.58;2.05;;;15.00;99.90;;;;;;5065771;28;20605;-82
2022/06/01 04:55:51;;;;;;;2.33;1.98;;;15.00;99.90;;;;;;5065570;28;20049;-81
2022/06/01 04:58:18;;;;;;;5.03;2.08;;;15.10;99.90;;;;;;5064598;28;20052;-82
2022/06/01 05:00:45;;;;;;;4.57;1.65;;;15.20;99.90;;;;;;5063086;28;20051;-82
2022/06/01 05:03:12;;;;;;;1.65;1.23;;;15.40;99.90;;;;;;5067533;28;20105;-82
2022/06/01 05:05:40;;;;;;;3.08;2.05;;;15.70;99.90;;;;;;5072444;28;20064;-82
2022/06/01 05:08:11;;;;;;;2.67;1.85;;;15.90;99.90;;;;;;5055737;28;20048;-79
2022/06/01 05:10:39;;;;;;;4.40;2.05;;;16.10;99.90;;;;;;5064638;28;20064;-81
2022/06/01 05:13:06;;;;;;;2.47;1.70;;;16.30;99.90;;;;;;5063569;28;20453;-83
2022/06/01 05:15:33;;;;;;;2.53;1.63;;;16.50;99.90;;;;;;5066630;28;20051;-82
2022/06/01 05:18:00;;;;;;;1.88;1.30;;;16.70;99.90;;;;;;5057187;28;20051;-82
2022/06/01 05:20:27;;;;;;;2.35;1.20;;;16.90;99.90;;;;;;5068912;28;20537;-82
2022/06/01 05:22:53;;;;;;;4.18;1.40;;;17.10;99.90;;;;;;5069577;28;20056;-82
2022/06/01 05:25:21;;;;;;;4.53;1.48;;;17.20;99.90;;;;;;5064997;28;20114;-82
2022/06/01 05:27:49;;;;;;;3.55;1.63;;;17.40;99.90;;;;;;5056305;28;20053;-82
2022/06/01 05:30:16;;;;;;;3.90;1.48;;;17.50;99.90;;;;;;5056581;28;20053;-82
2022/06/01 05:32:42;;;;;;;2.95;1.60;;;17.60;99.90;;;;;;5047220;28;20080;-82
2022/06/01 05:35:09;;;;;;;3.03;1.20;;;17.70;99.90;;;;;;5059789;28;20045;-83
2022/06/01 05:37:36;;;;;;;2.88;1.35;;;17.70;99.90;;;;;;5046666;28;20490;-82
2022/06/01 05:40:03;;;;;;;4.25;1.33;;;17.80;99.90;;;;;;5066629;28;20127;-82
2022/06/01 05:42:30;;;;;;;1.70;1.23;;;17.70;99.90;;;;;;5067510;28;20131;-83
2022/06/01 05:44:57;;;;;;;2.80;1.30;;;17.70;99.90;;;;;;5066534;28;20474;-82
2022/06/01 05:47:23;;;;;;;3.17;1.70;;;17.60;99.90;;;;;;5068537;28;20139;-82
2022/06/01 05:49:50;;;;;;;3.72;1.60;;;17.60;99.90;;;;;;5069239;28;20054;-83
2022/06/01 05:52:18;;;;;;;2.80;1.27;;;17.60;99.90;;;;;;5064770;28;20163;-83
2022/06/01 05:54:46;;;;;;;2.30;1.73;;;17.50;99.90;;;;;;5065932;28;20055;-82
2022/06/01 05:57:13;;;;;;;6.28;1.55;;;17.50;99.90;;;;;;5067928;28;20076;-83
2022/06/01 05:59:40;;;;;;;1.25;1.13;;;17.50;99.90;;;;;;5068250;28;20083;-82
2022/06/01 06:02:07;;;;;;;2.22;1.42;;;17.50;99.90;;;;;;5066172;28;20454;-83
2022/06/01 06:04:34;;;;;;;3.00;1.58;;;17.50;99.90;;;;;;5064280;28;20578;-82
2022/06/01 06:07:01;;;;;;;4.18;1.70;;;17.50;99.90;;;;;;5044352;28;20406;-84
2022/06/01 06:09:28;;;;;;;4.00;1.58;;;17.50;99.90;;;;;;5049470;28;20494;-82
2022/06/01 06:11:55;;;;;;;3.05;1.38;;;17.60;99.90;;;;;;5062500;28;20052;-82
2022/06/01 06:14:22;;;;;;;2.28;1.55;;;17.60;99.90;;;;;;5062050;28;20076;-82
2022/06/01 06:16:49;;;;;;;3.40;1.73;;;17.60;99.90;;;;;;5072520;28;20517;-83
2022/06/01 06:19:18;;;;;;;2.90;1.60;;;17.60;99.90;;;;;;5049653;28;20052;-83
2022/06/01 06:21:45;;;;;;;5.25;1.73;;;17.70;99.90;;;;;;5051011;28;20052;-82
2022/06/01 06:24:15;;;;;;;3.05;1.38;;;17.70;99.90;;;;;;5070575;28;20059;-82
2022/06/01 06:26:42;;;;;;;3.80;1.90;;;17.70;99.90;;;;;;5064100;28;20044;-82
2022/06/01 06:29:11;;;;;;;5.05;1.65;;;17.80;99.90;;;;;;5063329;28;20080;-83
2022/06/01 06:31:38;;;;;;;1.88;1.48;;;17.80;99.90;;;;;;5060597;28;20104;-81
2022/06/01 06:34:13;;;;;;;4.18;1.58;;;17.80;99.90;;;;;;5077075;28;20086;-85
2022/06/01 06:36:39;;;;;;;3.78;1.83;;;17.80;99.90;;;;;;5076127;28;20138;-86
2022/06/01 06:39:06;;;;;;;3.10;1.60;;;17.80;99.90;;;;;;5074019;28;20075;-85
2022/06/01 06:41:33;;;;;;;5.13;2.20;;;17.90;99.90;;;;;;5047540;28;20139;-85
2022/06/01 06:44:00;;;;;;;3.25;1.48;;;17.90;99.90;;;;;;5059913;28;20468;-83
2022/06/01 06:46:27;;;;;;;6.53;1.92;;;17.90;99.90;;;;;;5070988;28;20157;-87
2022/06/01 06:48:54;;;;;;;1.88;1.17;;;17.90;99.90;;;;;;5048766;28;20052;-85
2022/06/01 06:51:22;;;;;;;3.78;1.83;;;18.00;99.90;;;;;;5061211;28;20048;-86
2022/06/01 06:53:49;;;;;;;5.57;2.03;;;18.00;99.90;;;;;;5061735;28;20089;-86
2022/06/01 06:56:18;;;;;;;3.88;1.80;;;18.10;99.90;;;;;;5061840;28;20107;-87
2022/06/01 06:58:45;;;;;;;2.63;1.40;;;18.10;99.90;;;;;;5060415;28;20044;-86
2022/06/01 07:01:12;;;;;;;10.13;3.05;;;18.10;99.90;;;;;;5062934;28;20052;-86
2022/06/01 07:03:38;;;;;;;4.40;1.58;;;18.20;99.90;;;;;;5046065;28;20475;-85
2022/06/01 07:06:09;;;;;;;2.17;1.33;;;18.20;99.90;;;;;;5059816;28;20048;-86
2022/06/01 07:08:37;;;;;;;3.90;1.80;;;18.30;99.90;;;;;;5042834;28;20455;-86
2022/06/01 07:11:05;;;;;;;3.67;1.55;;;18.40;99.90;;;;;;5061927;28;20052;-86
2022/06/01 07:13:32;;;;;;;4.50;1.60;;;18.50;99.90;;;;;;5054322;28;20131;-86
2022/06/01 07:16:14;;;;;;;4.30;2.67;;;18.60;99.90;;;;;;5084394;28;20064;-86
2022/06/01 07:18:44;;;;;;;3.50;1.50;;;18.70;99.90;;;;;;5056689;28;20051;-85
2022/06/01 07:21:11;;;;;;;5.63;1.73;;;18.80;99.90;;;;;;5058930;28;20049;-85
2022/06/01 07:23:38;;;;;;;3.05;1.65;;;19.00;99.90;;;;;;5075166;28;20150;-86
2022/06/01 07:26:08;;;;;;;4.32;1.80;;;19.10;99.90;;;;;;5068585;28;20040;-86
2022/06/01 07:28:36;;;;;;;5.00;1.73;;;19.20;99.90;;;;;;5070039;28;20093;-87
2022/06/01 07:31:04;;;;;;;3.75;1.65;;;19.40;99.90;;;;;;5091875;28;20044;-87
2022/06/01 07:33:31;;;;;;;3.58;1.63;;;19.40;99.90;;;;;;5085467;28;20037;-87
2022/06/01 07:36:00;;;;;;;2.92;1.85;;;19.50;99.90;;;;;;5090334;28;20067;-87
2022/06/01 07:44:07;;;;;;;6.00;1.85;;;19.60;99.90;;;;;;5087794;28;20033;-89
2022/06/01 07:46:35;;;;;;;;;;;19.70;99.90;;;;;;5073432;28;20029;-89
2022/06/01 07:49:02;;;;;;;6.95;1.80;;;19.70;99.90;;;;;;5080113;28;19904;-87
2022/06/01 07:51:49;;;;;;;3.97;1.65;;;19.80;99.90;;;;;;5077471;28;20033;-87
2022/06/01 07:54:16;;;;;;;5.18;1.65;;;19.90;99.90;;;;;;5088251;28;20080;-86
2022/06/01 07:56:43;;;;;;;6.00;1.50;;;20.00;99.90;;;;;;5073490;28;20067;-86
2022/06/01 07:59:10;;;;;;;5.05;2.63;;;20.20;99.90;;;;;;5071484;28;20028;-87
2022/06/01 08:01:37;;;;;;;2.65;1.70;;;20.20;99.90;;;;;;5074369;28;20047;-87
2022/06/01 08:04:06;;;;;;;3.58;1.58;;;20.30;99.90;;;;;;5087892;28;20052;-86
2022/06/01 08:06:34;;;;;;;3.83;1.40;;;20.40;99.90;;;;;;5051618;28;20055;-86
2022/06/01 08:09:21;;;;;;;3.22;1.60;;;20.50;99.90;;;;;;5047781;28;20044;-86
2022/06/01 08:14:33;;;;;;;5.68;1.55;;;20.70;99.90;;;;;;5063731;28;20059;-86
2022/06/01 08:17:00;;;;;;;2.78;1.70;;;20.70;99.90;;;;;;5067175;28;20116;-86
2022/06/01 08:19:27;;;;;;;3.63;1.63;;;20.80;99.90;;;;;;5066346;28;20045;-86
2022/06/01 08:21:56;;;;;;;5.30;1.55;;;20.80;99.90;;;;;;5056609;28;20325;-86
2022/06/01 08:24:23;;;;;;;2.10;1.20;;;20.80;99.90;;;;;;5076642;28;20041;-88
2022/06/01 08:26:50;;;;;;;5.50;1.90;;;20.90;99.90;;;;;;5069974;28;20099;-86
2022/06/01 08:29:17;;;;;;;3.42;1.55;;;21.00;99.90;;;;;;5069926;28;20118;-88
2022/06/01 08:31:44;;;;;;;3.63;1.52;;;21.10;99.90;;;;;;5082486;28;20045;-85
2022/06/01 08:34:15;;;;;;;2.67;1.25;;;21.30;99.90;;;;;;5093909;28;20122;-86
2022/06/01 08:36:42;;;;;;;2.15;1.40;;;21.30;99.90;;;;;;5071780;28;20074;-87
2022/06/01 08:39:09;;;;;;;2.20;1.20;;;21.40;99.90;;;;;;5067957;28;20061;-87
2022/06/01 08:41:37;;;;;;;3.13;1.50;;;21.50;99.90;;;;;;5088540;28;20045;-85
2022/06/01 08:44:21;;;;;;;3.75;1.30;;;21.50;99.90;;;;;;5086155;28;20052;-87
2022/06/01 08:46:48;;;;;;;2.65;1.27;;;21.60;99.90;;;;;;5084770;28;20041;-86
2022/06/01 08:49:25;;;;;;;3.03;1.20;;;21.70;99.90;;;;;;5063650;28;20040;-84
2022/06/01 08:51:53;;;;;;;4.72;1.63;;;21.80;99.90;;;;;;5064096;28;20055;-86
2022/06/01 08:54:21;;;;;;;1.70;1.20;;;21.90;99.90;;;;;;5048411;28;20052;-85
2022/06/01 08:57:03;;;;;;;3.53;1.77;;;22.00;99.90;;;;;;5044943;28;20573;-85
2022/06/01 08:59:52;;;;;;;1.50;1.15;;;22.10;99.90;;;;;;5053357;28;20060;-86
2022/06/01 09:02:40;;;;;;;4.20;1.60;;;22.20;99.90;;;;;;5064068;28;20045;-85
2022/06/01 09:05:22;;;;;;;6.55;1.00;;;22.30;99.90;;;;;;5062127;28;20055;-84
2022/06/01 09:08:12;;;;;;;4.43;1.30;;;22.40;99.90;;;;;;5061518;28;20479;-85
2022/06/01 09:11:10;;;;;;;1.17;1.00;;;22.50;99.90;;;;;;5044228;28;20045;-85
2022/06/01 09:13:54;;;;;;;1.85;1.10;;;22.60;99.90;;;;;;5049676;28;20056;-84
2022/06/01 09:16:35;;;;;;;1.70;0.88;;;22.70;99.90;;;;;;5045199;28;20044;-85
2022/06/01 09:19:03;;;;;;;2.92;1.20;;;22.70;99.90;;;;;;5064867;28;20080;-85
2022/06/01 09:24:31;;;;;;;1.45;0.95;;;22.70;99.90;;;;;;5064566;28;20395;-86
2022/06/01 09:27:09;;;;;;;3.15;1.55;;;22.70;99.90;;;;;;5046053;28;20044;-86
2022/06/01 09:29:48;;;;;;;10.07;1.08;;;22.60;99.90;;;;;;5071757;23;20103;-81
2022/06/01 09:32:28;;;;;;;3.33;1.20;;;22.60;99.90;;;;;;5053325;28;20052;-82
2022/06/01 09:34:59;;;;;;;2.65;1.10;;;22.50;99.90;;;;;;5052458;28;20386;-80
2022/06/01 09:37:31;;;;;;;2.20;1.20;;;22.50;99.90;;;;;;5054453;28;20560;-81
2022/06/01 09:40:04;;;;;;;2.55;1.20;;;22.50;99.90;;;;;;5052470;28;20080;-81
2022/06/01 09:42:39;;;;;;;3.72;1.65;;;22.40;99.90;;;;;;5054361;28;20041;-81
2022/06/01 09:45:22;;;;;;;3.25;1.23;;;22.40;99.90;;;;;;5054426;28;20051;-80
2022/06/01 09:47:50;;;;;;;3.25;1.20;;;22.30;99.90;;;;;;5054063;28;20099;-80
2022/06/01 09:50:33;;;;;;;3.42;1.30;;;22.30;99.90;;;;;;5053035;28;20103;-82
2022/06/01 09:53:20;;;;;;;3.00;1.40;;;22.30;99.90;;;;;;5046989;28;20047;-83
2022/06/01 09:56:00;;;;;;;3.55;1.10;;;22.30;99.90;;;;;;5050393;28;20532;-81
2022/06/01 10:07:28;;;;;;;4.28;1.35;;;22.40;99.90;;;;;;5058171;28;20052;-80
2022/06/01 10:09:58;;;;;;;5.45;2.15;;;22.40;99.90;;;;;;5052194;28;20056;-81
2022/06/01 10:12:40;;;;;;;3.75;1.13;;;22.50;99.90;;;;;;5054163;28;20049;-80
2022/06/01 10:15:15;;;;;;;1.95;1.35;;;22.50;99.90;;;;;;5050933;28;20052;-81
2022/06/01 10:17:47;;;;;;;2.00;1.20;;;22.40;99.90;;;;;;5053677;28;20056;-81
2022/06/01 10:20:32;;;;;;;2.80;1.17;;;22.40;99.90;;;;;;5049472;28;20277;-81
2022/06/01 10:23:07;;;;;;;2.08;1.30;;;22.40;99.90;;;;;;5036057;28;20416;-82
2022/06/01 10:25:47;;;;;;;2.45;1.13;;;22.40;99.90;;;;;;5053559;28;20048;-80
2022/06/01 10:28:17;;;;;;;2.90;1.38;;;22.30;99.90;;;;;;5054044;28;20051;-81
2022/06/01 10:31:07;;;;;;;2.95;1.25;;;22.20;99.90;;;;;;5039125;28;20056;-81
2022/06/01 10:33:44;;;;;;;1.55;1.10;;;22.20;99.90;;;;;;5055192;28;20073;-80
2022/06/01 10:36:19;;;;;;;3.72;1.20;;;22.10;99.90;;;;;;5050634;28;20059;-81
2022/06/01 10:38:56;;;;;;;2.90;1.30;;;22.00;99.90;;;;;;5053530;28;20049;-81
2022/06/01 10:41:33;;;;;;;3.67;1.08;;;22.00;99.90;;;;;;5049831;28;20076;-81
2022/06/01 10:44:08;;;;;;;2.28;1.20;;;21.90;99.90;;;;;;5052666;28;20056;-80
2022/06/01 10:46:43;;;;;;;1.90;1.00;;;21.90;99.90;;;;;;5053642;28;20049;-81
2022/06/01 10:49:27;;;;;;;5.28;1.45;;;21.90;99.90;;;;;;5053278;28;20472;-80
2022/06/01 10:52:06;;;;;;;6.40;1.30;;;21.80;99.90;;;;;;5048896;28;20128;-81
2022/06/01 10:54:55;;;;;;;4.55;1.52;;;21.80;99.90;;;;;;5053722;28;20051;-81
2022/06/01 10:57:21;;;;;;;2.15;1.33;;;21.90;99.90;;;;;;5033877;28;20477;-81
2022/06/01 10:59:49;;;;;;;4.72;1.48;;;21.80;99.90;;;;;;5053933;28;20083;-82
2022/06/01 11:02:37;;;;;;;3.40;1.25;;;21.80;99.90;;;;;;5058131;28;20087;-81
2022/06/01 11:05:38;;;;;;;3.88;1.60;;;21.80;99.90;;;;;;5056508;28;20053;-81
2022/06/01 11:08:17;;;;;;;3.85;1.20;;;21.80;99.90;;;;;;5058538;28;20052;-81
2022/06/01 11:10:52;;;;;;;1.95;0.90;;;21.70;99.90;;;;;;5056108;28;20045;-80
2022/06/01 11:13:33;;;;;;;3.42;1.27;;;21.60;99.90;;;;;;5059772;28;20323;-81
2022/06/01 11:16:41;;;;;;;1.73;0.82;;;21.60;99.90;;;;;;5055863;28;20049;-80
2022/06/01 11:19:45;;;;;;;4.93;1.13;;;21.60;99.90;;;;;;5059433;28;20049;-81
2022/06/01 11:22:30;;;;;;;3.47;1.27;;;21.70;99.90;;;;;;5055562;28;20041;-81
2022/06/01 11:25:05;;;;;;;2.50;0.73;;;21.80;99.90;;;;;;5056030;28;20084;-82
2022/06/01 11:28:06;;;;;;;6.15;0.73;;;21.80;99.90;;;;;;5060418;28;20128;-80
2022/06/01 11:30:55;;;;;;;1.13;0.50;;;21.80;99.90;;;;;;5056710;28;20413;-81
2022/06/01 11:33:37;;;;;;;5.15;0.88;;;21.70;99.90;;;;;;5057961;28;20052;-80
2022/06/01 11:36:13;;;;;;;4.05;1.00;;;21.60;99.90;;;;;;5057400;28;20052;-82
2022/06/01 11:38:46;;;;;;;4.22;0.80;;;21.60;99.90;;;;;;5057581;28;20088;-81
2022/06/01 11:41:22;;;;;;;1.05;0.70;;;21.60;99.90;;;;;;5058376;28;20041;-80
2022/06/01 11:43:52;;;;;;;5.05;0.93;;;21.80;99.90;;;;;;5055949;28;20081;-81
2022/06/01 11:46:24;;;;;;;3.10;0.65;;;21.90;99.90;;;;;;5057949;28;20060;-81
2022/06/01 11:48:57;;;;;;;2.47;0.73;;;22.00;99.90;;;;;;5056920;28;20056;-81
2022/06/01 11:51:36;;;;;;;1.98;0.70;;;22.00;99.90;;;;;;5054167;28;20084;-81
2022/06/01 11:54:09;;;;;;;2.50;0.77;;;22.10;99.90;;;;;;5056479;28;20128;-80
2022/06/01 11:56:44;;;;;;;3.33;0.80;;;22.20;99.90;;;;;;5054629;28;20055;-81
2022/06/01 11:59:30;;;;;;;1.50;0.60;;;22.30;99.90;;;;;;5060184;28;20041;-82
2022/06/01 12:01:58;;;;;;;2.97;0.90;;;22.40;99.90;;;;;;5060391;28;20107;-81
2022/06/01 12:04:38;;;;;;;1.30;0.80;;;22.60;99.90;;;;;;5060685;28;20464;-82
2022/06/01 12:07:16;;;;;;;1.95;0.80;;;22.60;99.90;;;;;;5061180;28;20072;-80
2022/06/01 12:09:49;;;;;;;4.40;0.80;;;22.60;99.90;;;;;;5059689;28;20127;-82
2022/06/01 12:12:44;;;;;;;1.83;0.73;;;22.60;99.90;;;;;;5049705;28;20495;-81
2022/06/01 12:15:29;;;;;;;5.03;0.88;;;22.60;99.90;;;;;;5062239;28;20139;-81
2022/06/01 12:18:11;;;;;;;3.13;0.85;;;22.50;99.90;;;;;;5061341;28;20473;-81
2022/06/01 12:20:38;;;;;;;0.88;0.70;;;22.50;99.90;;;;;;5062494;28;20049;-81
2022/06/01 12:28:46;;;;;;;1.30;0.80;;;22.60;99.90;;;;;;5062162;28;20048;-81
2022/06/01 12:31:26;;;;;;;3.22;1.10;;;22.50;99.90;;;;;;5062033;28;20045;-82
2022/06/01 12:34:08;;;;;;;2.45;1.10;;;22.60;99.90;;;;;;5063965;28;20105;-82
2022/06/01 12:36:44;;;;;;;2.55;1.25;;;22.50;99.90;;;;;;5058978;28;20041;-81
2022/06/01 12:39:21;;;;;;;1.85;0.90;;;22.50;99.90;;;;;;5065700;28;20056;-82
2022/06/01 12:41:52;;;;;;;5.72;0.90;;;22.40;99.90;;;;;;5063211;28;20072;-81
2022/06/01 12:44:21;;;;;;;1.98;1.00;;;22.40;99.90;;;;;;5053904;28;20104;-81
2022/06/01 12:46:51;;;;;;;2.50;0.90;;;22.40;99.90;;;;;;5070691;28;20516;-82
2022/06/01 12:49:28;;;;;;;1.38;0.80;;;22.50;99.90;;;;;;5069554;28;20052;-81
2022/06/01 12:52:00;;;;;;;2.38;0.98;;;22.50;99.90;;;;;;5070747;28;20079;-81
2022/06/01 12:54:32;;;;;;;5.22;1.25;;;22.60;99.90;;;;;;5073109;28;20053;-82
2022/06/01 12:56:59;;;;;;;1.55;0.98;;;22.60;99.90;;;;;;5074103;28;20080;-81
2022/06/01 12:59:32;;;;;;;3.20;0.88;;;22.70;99.90;;;;;;5074443;28;20051;-82
2022/06/01 13:02:04;;;;;;;1.15;0.80;;;22.80;99.90;;;;;;5072567;28;20112;-81
2022/06/01 13:04:35;;;;;;;3.47;0.80;;;22.90;99.90;;;;;;5067600;28;20045;-81
2022/06/01 13:07:02;;;;;;;2.03;1.02;;;23.00;99.90;;;;;;5050762;28;20193;-81
2022/06/01 13:09:32;;;;;;;2.28;0.98;;;23.00;99.90;;;;;;5062604;28;20498;-81
2022/06/01 13:12:13;;;;;;;1.75;0.73;;;22.90;99.90;;;;;;5067725;28;20117;-80
2022/06/01 13:14:40;;;;;;;1.60;0.73;;;22.80;99.90;;;;;;5039453;28;20044;-82
2022/06/01 13:17:17;;;;;;;1.45;0.77;;;22.70;99.90;;;;;;5056205;28;20052;-82
2022/06/01 13:19:56;;;;;;;2.53;0.80;;;22.60;99.90;;;;;;5037548;28;20045;-81
2022/06/01 13:22:31;;;;;;;3.83;0.88;;;22.60;99.90;;;;;;5054931;28;20131;-81
2022/06/01 13:25:24;;;;;;;2.22;0.90;;;22.60;99.90;;;;;;5054876;28;20529;-81
2022/06/01 13:27:53;;;;;;;4.50;1.02;;;22.50;99.90;;;;;;5055265;28;20448;-81
2022/06/01 13:30:20;;;;;;;2.15;0.93;;;22.60;99.90;;;;;;5055459;28;20135;-81
2022/06/01 13:32:50;;;;;;;3.35;1.17;;;22.60;99.90;;;;;;5055201;28;20087;-81
2022/06/01 13:35:25;;;;;;;1.50;0.80;;;22.60;99.90;;;;;;5054465;28;20052;-81
2022/06/01 13:37:54;;;;;;;2.35;0.80;;;22.70;99.90;;;;;;5051589;28;20520;-82
2022/06/01 13:40:28;;;;;;;3.60;1.07;;;22.80;99.90;;;;;;5054582;28;20605;-82
2022/06/01 13:43:14;;;;;;;3.45;0.95;;;22.90;99.90;;;;;;5056098;28;20049;-81
2022/06/01 13:45:50;;;;;;;2.25;1.00;;;23.00;99.90;;;;;;5053211;28;20045;-81
2022/06/01 13:48:41;;;;;;;2.58;1.10;;;22.90;99.90;;;;;;5050577;28;20049;-81